Decoded Metar for PAFR (FORT RICHARDSON in USA) (IATA:N/A) | Meteo·Mobile Aviation Weather
aviador You're here:

PAFR Decoded Metar

FORT RICHARDSON in USA
Report Time2019-02-20 19:58:00
UTC Time2019-02-20 20:19:54
Flight Rules vfr VFR
WindCalm
Visibility9999 m
Phenomena:N/A
Clouds:Overcast 075 Hf
Expected CloudBase > 400 ft AGL from Temp-Dew spread
Ceiling7,500 ft
Temp-10°C (ISA -24)
Dew Point-11°C (92% RH)
AAT-13.1°C
QNH1018 hPa
Density Alt-2,789 ft
Elevation377 ft
Report Wrong Elevation
Raw Report
PAFR 201958Z AUTO 00000KT 10SM OVC075 M10/M11 A3005=

Extra information for PAFR:More info

Metar Taf Metar & Taf Last 4 Metars F.Rules Stats Wind Profile Meteogram Temp Stats Airport Information Weather charts Add Link Nearby VenuesMetar ALERT Operation Metar Decoded Social comments

AIRNAV info for PAFR